Picayune, MS

11:59 CDT le 28 septembre 2016 (GMT -0500)
Hide_A_Way Lake ~OWX | | Change Station

Alt. 100 ft 30.58 °N, 89.65 °W | Updated 11 seconds ago

Clear
Ciel dégagé
84.9 ° F
Paraît 87 ° F
N
0.0
Vent Variable Vent de ENE
Gusts 3.0 mph

Aujourd'hui
Haut(e) -- | Bas -- ° F
--% Risque de précip.
Hier
Haut(e) -- | Bas -- ° F
Precip. -- pouce
Pression 30.01 pouce
Visibilité 10.0 Miles terrestres
Nuages Ciel dégagé
indice de chaleur 87 ° F
Point de rosée 65 ° F
Humidité 52%
Précipitations pouce
Profondeur de la couche neigeuse Non disponible.
6:50 AM 6:47 PM
Lune descendante, 5% visible
METAR KASD 281653Z AUTO 03004KT 10SM CLR 29/17 A3001 RMK AO2 SLP161 T02940167
Pression 30.01 pouce
Visibilité 10.0 Miles terrestres
Nuages Ciel dégagé
indice de chaleur 87 ° F
Point de rosée 65 ° F
Humidité 52%
Précipitations pouce
Profondeur de la couche neigeuse Non disponible.
6:50 AM 6:47 PM
Lune descendante, 5% visible
METAR KASD 281653Z AUTO 03004KT 10SM CLR 29/17 A3001 RMK AO2 SLP161 T02940167

10-Day Weather Forecast

Almanac

Astronomie

Sep. 28, 2016 Lever Coucher
Temps réel
Crépuscule civil
Crépuscule nautique
Crépuscule astronomique
Lune
Durée de lumière visible
Longueur du jour
Tomorrow will be .
, % of the Moon is Illuminated

Extrêmes aujourd'hui

State Highs State Lows

Community

WunderPhotos

Upload Photos

1,942,283 Photos téléchargées !

WunderBlog® & News

Nearby

Qualité de l'air

  Qualité de l'air Indice de la qualité de l'air Polluant
Not available.

Épaisseur de neige

Station Depth Altitude

Activité sismique

Ville Distance Mag. Time & Date
Minimum magnitude displayed is 2.5.

Températures des eaux côtières

Lieu Température

Stations

Stations météo à proximité

Emplacement de la station Température Refroidissement éolien Point de rosée Humidité Vent Precip. Alt. Mise à jour Type
                   

Watches & Warnings

There are currently no watches in effect.